sensor_id;sensor_type;location;lat;lon;timestamp;pressure;altitude;pressure_sealevel;temperature;humidity
50356;BME280;36264;51.296;-0.602;2023-05-25T00:00:50;102411.97;;;17.11;56.63
50356;BME280;36264;51.296;-0.602;2023-05-25T00:03:15;102417.31;;;17.08;57.00
50356;BME280;36264;51.296;-0.602;2023-05-25T00:05:41;102421.81;;;17.04;56.75
50356;BME280;36264;51.296;-0.602;2023-05-25T00:08:06;102424.66;;;16.96;57.05
50356;BME280;36264;51.296;-0.602;2023-05-25T00:10:31;102433.47;;;16.94;57.21
50356;BME280;36264;51.296;-0.602;2023-05-25T00:12:57;102424.00;;;16.90;57.21
50356;BME280;36264;51.296;-0.602;2023-05-25T00:15:22;102418.00;;;16.84;56.91
50356;BME280;36264;51.296;-0.602;2023-05-25T00:17:48;102430.31;;;16.82;57.28
50356;BME280;36264;51.296;-0.602;2023-05-25T00:20:13;102424.25;;;16.80;57.23
50356;BME280;36264;51.296;-0.602;2023-05-25T00:22:42;102424.25;;;16.80;57.09
50356;BME280;36264;51.296;-0.602;2023-05-25T00:25:09;102427.91;;;16.75;57.43
50356;BME280;36264;51.296;-0.602;2023-05-25T00:27:34;102436.75;;;16.72;57.61
50356;BME280;36264;51.296;-0.602;2023-05-25T00:30:00;102442.22;;;16.64;57.50
50356;BME280;36264;51.296;-0.602;2023-05-25T00:32:25;102448.28;;;16.66;57.66
50356;BME280;36264;51.296;-0.602;2023-05-25T00:34:50;102439.63;;;16.63;57.59
50356;BME280;36264;51.296;-0.602;2023-05-25T00:37:16;102442.25;;;16.63;57.80
50356;BME280;36264;51.296;-0.602;2023-05-25T00:39:41;102437.91;;;16.62;57.97
50356;BME280;36264;51.296;-0.602;2023-05-25T00:42:07;102444.13;;;16.59;57.82
50356;BME280;36264;51.296;-0.602;2023-05-25T00:44:33;102440.63;;;16.59;57.94
50356;BME280;36264;51.296;-0.602;2023-05-25T00:46:58;102432.06;;;16.52;58.31
50356;BME280;36264;51.296;-0.602;2023-05-25T00:49:25;102437.41;;;16.49;58.16
50356;BME280;36264;51.296;-0.602;2023-05-25T00:51:52;102447.09;;;16.47;58.33
50356;BME280;36264;51.296;-0.602;2023-05-25T00:54:18;102454.06;;;16.48;58.21
50356;BME280;36264;51.296;-0.602;2023-05-25T00:57:00;102456.78;;;16.45;59.36
50356;BME280;36264;51.296;-0.602;2023-05-25T00:59:36;102461.22;;;16.41;58.65
50356;BME280;36264;51.296;-0.602;2023-05-25T01:02:08;102463.03;;;16.39;58.11
50356;BME280;36264;51.296;-0.602;2023-05-25T01:04:56;102469.28;;;16.35;58.01
50356;BME280;36264;51.296;-0.602;2023-05-25T01:07:25;102468.59;;;16.28;58.44
50356;BME280;36264;51.296;-0.602;2023-05-25T01:10:00;102469.59;;;16.24;58.85
50356;BME280;36264;51.296;-0.602;2023-05-25T01:12:29;102471.50;;;16.18;58.71
50356;BME280;36264;51.296;-0.602;2023-05-25T01:14:56;102483.03;;;16.12;58.81
50356;BME280;36264;51.296;-0.602;2023-05-25T01:17:25;102480.47;;;16.09;58.56
50356;BME280;36264;51.296;-0.602;2023-05-25T01:19:50;102491.03;;;16.06;58.75
50356;BME280;36264;51.296;-0.602;2023-05-25T01:22:31;102488.38;;;16.07;59.70
50356;BME280;36264;51.296;-0.602;2023-05-25T01:25:11;102485.00;;;16.04;59.45
50356;BME280;36264;51.296;-0.602;2023-05-25T01:30:26;102491.28;;;15.97;59.31
50356;BME280;36264;51.296;-0.602;2023-05-25T01:32:53;102488.84;;;15.89;59.45
50356;BME280;36264;51.296;-0.602;2023-05-25T01:35:20;102488.97;;;15.84;59.28
50356;BME280;36264;51.296;-0.602;2023-05-25T01:37:47;102476.09;;;15.77;59.39
50356;BME280;36264;51.296;-0.602;2023-05-25T01:40:13;102488.31;;;15.74;59.07
50356;BME280;36264;51.296;-0.602;2023-05-25T01:42:40;102485.75;;;15.71;59.41
50356;BME280;36264;51.296;-0.602;2023-05-25T01:45:06;102483.19;;;15.70;59.56
50356;BME280;36264;51.296;-0.602;2023-05-25T01:47:37;102484.06;;;15.70;59.56
50356;BME280;36264;51.296;-0.602;2023-05-25T01:50:17;102487.63;;;15.66;60.40
50356;BME280;36264;51.296;-0.602;2023-05-25T01:52:59;102491.22;;;15.62;60.48
50356;BME280;36264;51.296;-0.602;2023-05-25T01:55:28;102490.47;;;15.57;59.99
50356;BME280;36264;51.296;-0.602;2023-05-25T01:57:55;102495.78;;;15.54;60.09
50356;BME280;36264;51.296;-0.602;2023-05-25T02:00:26;102494.13;;;15.51;59.96
50356;BME280;36264;51.296;-0.602;2023-05-25T02:02:55;102500.34;;;15.46;60.33
50356;BME280;36264;51.296;-0.602;2023-05-25T02:05:21;102489.06;;;15.44;60.33
50356;BME280;36264;51.296;-0.602;2023-05-25T02:07:46;102491.78;;;15.39;60.42
50356;BME280;36264;51.296;-0.602;2023-05-25T02:10:11;102492.72;;;15.36;60.28
50356;BME280;36264;51.296;-0.602;2023-05-25T02:12:37;102491.94;;;15.33;60.54
50356;BME280;36264;51.296;-0.602;2023-05-25T02:15:02;102486.78;;;15.28;60.50
50356;BME280;36264;51.296;-0.602;2023-05-25T02:17:28;102489.63;;;15.19;60.41
50356;BME280;36264;51.296;-0.602;2023-05-25T02:19:54;102493.97;;;15.20;60.62
50356;BME280;36264;51.296;-0.602;2023-05-25T02:22:20;102489.75;;;15.13;60.75
50356;BME280;36264;51.296;-0.602;2023-05-25T02:24:46;102490.69;;;15.10;60.75
50356;BME280;36264;51.296;-0.602;2023-05-25T02:27:12;102493.41;;;15.06;60.92
50356;BME280;36264;51.296;-0.602;2023-05-25T02:29:38;102493.44;;;15.04;60.81
50356;BME280;36264;51.296;-0.602;2023-05-25T02:32:04;102490.94;;;14.99;60.65
50356;BME280;36264;51.296;-0.602;2023-05-25T02:34:30;102490.94;;;14.99;61.10
50356;BME280;36264;51.296;-0.602;2023-05-25T02:36:55;102493.56;;;14.99;61.09
50356;BME280;36264;51.296;-0.602;2023-05-25T02:39:20;102492.69;;;14.99;61.31
50356;BME280;36264;51.296;-0.602;2023-05-25T02:41:46;102496.16;;;14.99;61.14
50356;BME280;36264;51.296;-0.602;2023-05-25T02:44:11;102497.06;;;14.98;61.11
50356;BME280;36264;51.296;-0.602;2023-05-25T02:46:36;102494.56;;;14.92;61.44
50356;BME280;36264;51.296;-0.602;2023-05-25T02:49:02;102500.69;;;14.93;61.32
50356;BME280;36264;51.296;-0.602;2023-05-25T02:51:27;102498.09;;;14.91;61.62
50356;BME280;36264;51.296;-0.602;2023-05-25T02:53:53;102500.81;;;14.87;61.35
50356;BME280;36264;51.296;-0.602;2023-05-25T02:56:18;102494.81;;;14.81;61.68
50356;BME280;36264;51.296;-0.602;2023-05-25T02:58:45;102505.13;;;14.88;61.55
50356;BME280;36264;51.296;-0.602;2023-05-25T03:01:11;102497.41;;;14.83;61.66
50356;BME280;36264;51.296;-0.602;2023-05-25T03:03:43;102508.75;;;14.82;61.72
50356;BME280;36264;51.296;-0.602;2023-05-25T03:06:10;102503.56;;;14.79;61.38
50356;BME280;36264;51.296;-0.602;2023-05-25T03:08:37;102506.19;;;14.79;61.93
50356;BME280;36264;51.296;-0.602;2023-05-25T03:11:02;102509.69;;;14.78;61.95
50356;BME280;36264;51.296;-0.602;2023-05-25T03:13:28;102504.41;;;14.79;62.12
50356;BME280;36264;51.296;-0.602;2023-05-25T03:15:53;102505.31;;;14.80;61.90
50356;BME280;36264;51.296;-0.602;2023-05-25T03:18:18;102503.34;;;14.90;62.07
50356;BME280;36264;51.296;-0.602;2023-05-25T03:20:43;102498.91;;;14.93;61.94
50356;BME280;36264;51.296;-0.602;2023-05-25T03:23:09;102504.88;;;15.00;61.83
50356;BME280;36264;51.296;-0.602;2023-05-25T03:25:35;102508.25;;;15.05;61.94
50356;BME280;36264;51.296;-0.602;2023-05-25T03:28:00;102505.50;;;15.11;61.75
50356;BME280;36264;51.296;-0.602;2023-05-25T03:30:26;102501.88;;;15.17;61.83
50356;BME280;36264;51.296;-0.602;2023-05-25T03:32:51;102498.22;;;15.24;61.80
50356;BME280;36264;51.296;-0.602;2023-05-25T03:35:17;102502.50;;;15.28;61.41
50356;BME280;36264;51.296;-0.602;2023-05-25T03:37:42;102507.56;;;15.36;61.59
50356;BME280;36264;51.296;-0.602;2023-05-25T03:40:08;102503.06;;;15.41;61.71
50356;BME280;36264;51.296;-0.602;2023-05-25T03:42:34;102497.72;;;15.46;62.06
50356;BME280;36264;51.296;-0.602;2023-05-25T03:45:00;102504.00;;;15.40;62.43
50356;BME280;36264;51.296;-0.602;2023-05-25T03:47:25;102501.22;;;15.46;62.30
50356;BME280;36264;51.296;-0.602;2023-05-25T03:49:50;102508.06;;;15.52;62.29
50356;BME280;36264;51.296;-0.602;2023-05-25T03:52:16;102508.81;;;15.57;62.18
50356;BME280;36264;51.296;-0.602;2023-05-25T03:54:41;102507.78;;;15.64;62.29
50356;BME280;36264;51.296;-0.602;2023-05-25T03:57:06;102505.97;;;15.66;62.18
50356;BME280;36264;51.296;-0.602;2023-05-25T03:59:31;102514.56;;;15.71;61.88
50356;BME280;36264;51.296;-0.602;2023-05-25T04:01:57;102509.22;;;15.78;61.93
50356;BME280;36264;51.296;-0.602;2023-05-25T04:04:22;102510.81;;;15.85;61.70
50356;BME280;36264;51.296;-0.602;2023-05-25T04:06:47;102517.81;;;15.83;62.06
50356;BME280;36264;51.296;-0.602;2023-05-25T04:09:13;102500.47;;;15.79;62.61
50356;BME280;36264;51.296;-0.602;2023-05-25T04:11:39;102514.47;;;15.78;62.51
50356;BME280;36264;51.296;-0.602;2023-05-25T04:14:04;102520.59;;;15.78;62.41
50356;BME280;36264;51.296;-0.602;2023-05-25T04:16:30;102518.66;;;15.85;62.61
50356;BME280;36264;51.296;-0.602;2023-05-25T04:18:55;102526.44;;;15.88;62.66
50356;BME280;36264;51.296;-0.602;2023-05-25T04:21:21;102519.47;;;15.87;62.98
50356;BME280;36264;51.296;-0.602;2023-05-25T04:23:46;102520.22;;;15.92;63.12
50356;BME280;36264;51.296;-0.602;2023-05-25T04:26:11;102508.13;;;15.88;62.72
50356;BME280;36264;51.296;-0.602;2023-05-25T04:28:37;102523.50;;;16.00;62.70
50356;BME280;36264;51.296;-0.602;2023-05-25T04:31:05;102516.38;;;16.07;62.49
50356;BME280;36264;51.296;-0.602;2023-05-25T04:33:31;102520.56;;;16.12;62.66
50356;BME280;36264;51.296;-0.602;2023-05-25T04:35:56;102524.00;;;16.16;62.60
50356;BME280;36264;51.296;-0.602;2023-05-25T04:38:24;102516.13;;;16.16;62.87
50356;BME280;36264;51.296;-0.602;2023-05-25T04:40:51;102527.38;;;16.20;62.79
50356;BME280;36264;51.296;-0.602;2023-05-25T04:43:18;102530.00;;;16.20;62.48
50356;BME280;36264;51.296;-0.602;2023-05-25T04:45:44;102537.75;;;16.24;63.11
50356;BME280;36264;51.296;-0.602;2023-05-25T04:48:12;102539.38;;;16.28;63.18
50356;BME280;36264;51.296;-0.602;2023-05-25T04:50:38;102530.66;;;16.28;63.17
50356;BME280;36264;51.296;-0.602;2023-05-25T04:53:07;102544.53;;;16.32;63.53
50356;BME280;36264;51.296;-0.602;2023-05-25T04:55:32;102546.34;;;16.29;64.14
50356;BME280;36264;51.296;-0.602;2023-05-25T04:57:58;102533.38;;;16.25;63.83
50356;BME280;36264;51.296;-0.602;2023-05-25T05:00:23;102534.16;;;16.27;63.84
50356;BME280;36264;51.296;-0.602;2023-05-25T05:02:49;102538.56;;;16.26;63.86
50356;BME280;36264;51.296;-0.602;2023-05-25T05:05:16;102543.88;;;16.23;64.08
50356;BME280;36264;51.296;-0.602;2023-05-25T05:07:41;102542.13;;;16.24;64.04
50356;BME280;36264;51.296;-0.602;2023-05-25T05:10:07;102537.69;;;16.27;63.84
50356;BME280;36264;51.296;-0.602;2023-05-25T05:12:32;102533.03;;;16.37;63.70
50356;BME280;36264;51.296;-0.602;2023-05-25T05:14:58;102537.19;;;16.44;63.45
50356;BME280;36264;51.296;-0.602;2023-05-25T05:17:23;102547.56;;;16.49;63.51
50356;BME280;36264;51.296;-0.602;2023-05-25T05:19:50;102547.59;;;16.47;63.71
50356;BME280;36264;51.296;-0.602;2023-05-25T05:22:15;102554.50;;;16.52;63.93
50356;BME280;36264;51.296;-0.602;2023-05-25T05:24:41;102554.38;;;16.56;63.68
50356;BME280;36264;51.296;-0.602;2023-05-25T05:27:06;102553.47;;;16.57;63.52
50356;BME280;36264;51.296;-0.602;2023-05-25T05:29:32;102561.31;;;16.57;64.00
50356;BME280;36264;51.296;-0.602;2023-05-25T05:31:59;102555.16;;;16.60;64.05
50356;BME280;36264;51.296;-0.602;2023-05-25T05:34:25;102562.00;;;16.65;64.12
50356;BME280;36264;51.296;-0.602;2023-05-25T05:36:50;102566.28;;;16.68;63.92
50356;BME280;36264;51.296;-0.602;2023-05-25T05:39:16;102558.38;;;16.70;63.82
50356;BME280;36264;51.296;-0.602;2023-05-25T05:41:41;102569.47;;;16.79;64.07
50356;BME280;36264;51.296;-0.602;2023-05-25T05:44:10;102573.09;;;16.75;64.44
50356;BME280;36264;51.296;-0.602;2023-05-25T05:46:36;102564.50;;;16.70;64.40
50356;BME280;36264;51.296;-0.602;2023-05-25T05:49:01;102577.38;;;16.78;64.52
50356;BME280;36264;51.296;-0.602;2023-05-25T05:51:27;102584.34;;;16.79;64.61
50356;BME280;36264;51.296;-0.602;2023-05-25T05:53:53;102584.28;;;16.82;64.70
50356;BME280;36264;51.296;-0.602;2023-05-25T05:56:18;102586.06;;;16.81;65.00
50356;BME280;36264;51.296;-0.602;2023-05-25T05:58:44;102574.00;;;16.74;64.91
50356;BME280;36264;51.296;-0.602;2023-05-25T06:01:09;102595.50;;;16.89;64.63
50356;BME280;36264;51.296;-0.602;2023-05-25T06:03:35;102591.81;;;16.96;64.53
50356;BME280;36264;51.296;-0.602;2023-05-25T06:06:02;102598.50;;;17.06;63.99
50356;BME280;36264;51.296;-0.602;2023-05-25T06:08:27;102594.66;;;17.18;63.70
50356;BME280;36264;51.296;-0.602;2023-05-25T06:10:53;102600.53;;;17.26;63.51
50356;BME280;36264;51.296;-0.602;2023-05-25T06:13:20;102593.34;;;17.33;63.32
50356;BME280;36264;51.296;-0.602;2023-05-25T06:15:45;102595.75;;;17.41;63.07
50356;BME280;36264;51.296;-0.602;2023-05-25T06:18:10;102584.38;;;17.40;62.93
50356;BME280;36264;51.296;-0.602;2023-05-25T06:20:36;102606.88;;;17.49;62.77
50356;BME280;36264;51.296;-0.602;2023-05-25T06:23:01;102603.25;;;17.53;62.78
50356;BME280;36264;51.296;-0.602;2023-05-25T06:25:26;102608.31;;;17.59;62.69
50356;BME280;36264;51.296;-0.602;2023-05-25T06:27:52;102603.72;;;17.66;62.62
50356;BME280;36264;51.296;-0.602;2023-05-25T06:30:17;102610.41;;;17.76;62.20
50356;BME280;36264;51.296;-0.602;2023-05-25T06:32:43;102605.94;;;17.80;62.13
50356;BME280;36264;51.296;-0.602;2023-05-25T06:35:08;102601.41;;;17.83;62.09
50356;BME280;36264;51.296;-0.602;2023-05-25T06:37:36;102603.78;;;17.92;61.86
50356;BME280;36264;51.296;-0.602;2023-05-25T06:40:03;102602.63;;;18.01;61.66
50356;BME280;36264;51.296;-0.602;2023-05-25T06:42:35;102609.34;;;18.10;61.78
50356;BME280;36264;51.296;-0.602;2023-05-25T06:45:02;102611.69;;;18.19;61.72
50356;BME280;36264;51.296;-0.602;2023-05-25T06:47:28;102612.19;;;18.31;61.67
50356;BME280;36264;51.296;-0.602;2023-05-25T06:49:53;102612.06;;;18.34;61.67
50356;BME280;36264;51.296;-0.602;2023-05-25T06:52:19;102604.88;;;18.39;61.89
50356;BME280;36264;51.296;-0.602;2023-05-25T06:54:44;102609.66;;;18.53;61.35
50356;BME280;36264;51.296;-0.602;2023-05-25T06:57:10;102608.38;;;18.64;61.20
50356;BME280;36264;51.296;-0.602;2023-05-25T06:59:35;102614.66;;;18.60;61.17
50356;BME280;36264;51.296;-0.602;2023-05-25T07:02:00;102604.47;;;18.51;61.79
50356;BME280;36264;51.296;-0.602;2023-05-25T07:04:26;102611.91;;;18.38;62.77
50356;BME280;36264;51.296;-0.602;2023-05-25T07:06:52;102614.56;;;18.38;62.75
50356;BME280;36264;51.296;-0.602;2023-05-25T07:09:18;102617.94;;;18.42;62.13
50356;BME280;36264;51.296;-0.602;2023-05-25T07:11:43;102620.41;;;18.46;62.60
50356;BME280;36264;51.296;-0.602;2023-05-25T07:14:08;102620.41;;;18.46;62.42
50356;BME280;36264;51.296;-0.602;2023-05-25T07:16:34;102615.09;;;18.48;62.01
50356;BME280;36264;51.296;-0.602;2023-05-25T07:19:00;102614.06;;;18.52;61.20
50356;BME280;36264;51.296;-0.602;2023-05-25T07:21:25;102612.84;;;18.62;60.93
50356;BME280;36264;51.296;-0.602;2023-05-25T07:23:50;102616.03;;;18.71;60.17
50356;BME280;36264;51.296;-0.602;2023-05-25T07:26:16;102618.47;;;18.77;59.76
50356;BME280;36264;51.296;-0.602;2023-05-25T07:28:41;102620.97;;;18.80;59.08
50356;BME280;36264;51.296;-0.602;2023-05-25T07:31:08;102616.56;;;18.80;59.51
50356;BME280;36264;51.296;-0.602;2023-05-25T07:33:34;102621.69;;;18.85;59.50
50356;BME280;36264;51.296;-0.602;2023-05-25T07:35:59;102627.53;;;18.93;59.34
50356;BME280;36264;51.296;-0.602;2023-05-25T07:38:25;102624.00;;;18.94;58.64
50356;BME280;36264;51.296;-0.602;2023-05-25T07:40:50;102625.69;;;18.97;58.82
50356;BME280;36264;51.296;-0.602;2023-05-25T07:43:17;102629.72;;;19.06;58.14
50356;BME280;36264;51.296;-0.602;2023-05-25T07:45:42;102627.66;;;19.14;57.72
50356;BME280;36264;51.296;-0.602;2023-05-25T07:48:07;102633.44;;;19.24;57.52
50356;BME280;36264;51.296;-0.602;2023-05-25T07:50:33;102628.78;;;19.32;57.02
50356;BME280;36264;51.296;-0.602;2023-05-25T07:52:59;102625.03;;;19.37;57.02
50356;BME280;36264;51.296;-0.602;2023-05-25T07:55:25;102631.72;;;19.46;56.86
50356;BME280;36264;51.296;-0.602;2023-05-25T07:57:51;102635.22;;;19.47;56.58
50356;BME280;36264;51.296;-0.602;2023-05-25T08:00:18;102634.19;;;19.51;56.32
50356;BME280;36264;51.296;-0.602;2023-05-25T08:02:44;102634.13;;;19.52;56.17
50356;BME280;36264;51.296;-0.602;2023-05-25T08:05:09;102627.19;;;19.50;55.57
50356;BME280;36264;51.296;-0.602;2023-05-25T08:07:35;102637.63;;;19.53;55.28
50356;BME280;36264;51.296;-0.602;2023-05-25T08:10:01;102644.69;;;19.52;55.12
50356;BME280;36264;51.296;-0.602;2023-05-25T08:12:27;102652.31;;;19.59;54.96
50356;BME280;36264;51.296;-0.602;2023-05-25T08:14:53;102640.63;;;19.66;54.68
50356;BME280;36264;51.296;-0.602;2023-05-25T08:17:19;102634.28;;;19.71;54.44
50356;BME280;36264;51.296;-0.602;2023-05-25T08:19:45;102641.53;;;19.65;54.36
50356;BME280;36264;51.296;-0.602;2023-05-25T08:22:10;102640.19;;;19.78;54.38
50356;BME280;36264;51.296;-0.602;2023-05-25T08:24:35;102644.41;;;19.82;53.39
50356;BME280;36264;51.296;-0.602;2023-05-25T08:27:01;102639.63;;;19.92;54.20
50356;BME280;36264;51.296;-0.602;2023-05-25T08:29:26;102635.94;;;19.96;53.61
50356;BME280;36264;51.296;-0.602;2023-05-25T08:31:52;102630.94;;;20.11;53.67
50356;BME280;36264;51.296;-0.602;2023-05-25T08:34:18;102640.22;;;20.21;53.46
50356;BME280;36264;51.296;-0.602;2023-05-25T08:36:43;102640.88;;;20.26;52.97
50356;BME280;36264;51.296;-0.602;2023-05-25T08:39:09;102632.44;;;20.38;52.74
50356;BME280;36264;51.296;-0.602;2023-05-25T08:41:35;102632.38;;;20.40;52.43
50356;BME280;36264;51.296;-0.602;2023-05-25T08:44:01;102637.72;;;20.38;52.39
50356;BME280;36264;51.296;-0.602;2023-05-25T08:46:32;102634.63;;;20.49;52.16
50356;BME280;36264;51.296;-0.602;2023-05-25T08:49:03;102632.44;;;20.59;51.96
50356;BME280;36264;51.296;-0.602;2023-05-25T08:51:34;102629.44;;;20.68;52.14
50356;BME280;36264;51.296;-0.602;2023-05-25T08:54:06;102629.22;;;20.73;52.26
50356;BME280;36264;51.296;-0.602;2023-05-25T08:56:38;102640.53;;;20.76;51.33
50356;BME280;36264;51.296;-0.602;2023-05-25T08:59:14;102625.13;;;20.86;51.43
50356;BME280;36264;51.296;-0.602;2023-05-25T09:01:45;102633.41;;;20.97;50.69
50356;BME280;36264;51.296;-0.602;2023-05-25T09:04:11;102618.41;;;20.98;51.33
50356;BME280;36264;51.296;-0.602;2023-05-25T09:06:38;102623.28;;;21.07;51.48
50356;BME280;36264;51.296;-0.602;2023-05-25T09:09:04;102624.88;;;21.11;51.54
50356;BME280;36264;51.296;-0.602;2023-05-25T09:11:30;102625.50;;;21.16;51.02
50356;BME280;36264;51.296;-0.602;2023-05-25T09:13:56;102624.66;;;21.16;51.69
50356;BME280;36264;51.296;-0.602;2023-05-25T09:16:22;102631.00;;;21.12;50.94
50356;BME280;36264;51.296;-0.602;2023-05-25T09:18:49;102631.72;;;21.15;50.80
50356;BME280;36264;51.296;-0.602;2023-05-25T09:21:14;102633.50;;;21.15;51.08
50356;BME280;36264;51.296;-0.602;2023-05-25T09:23:40;102628.06;;;21.18;51.02
50356;BME280;36264;51.296;-0.602;2023-05-25T09:26:06;102634.06;;;21.22;50.93
50356;BME280;36264;51.296;-0.602;2023-05-25T09:28:33;102628.72;;;21.23;51.34
50356;BME280;36264;51.296;-0.602;2023-05-25T09:30:58;102637.81;;;21.37;51.25
50356;BME280;36264;51.296;-0.602;2023-05-25T09:33:24;102629.66;;;21.41;50.79
50356;BME280;36264;51.296;-0.602;2023-05-25T09:35:50;102637.94;;;21.71;50.33
50356;BME280;36264;51.296;-0.602;2023-05-25T09:38:15;102636.94;;;21.92;50.24
50356;BME280;36264;51.296;-0.602;2023-05-25T09:40:41;102631.97;;;22.03;49.41
50356;BME280;36264;51.296;-0.602;2023-05-25T09:43:06;102634.97;;;22.14;49.32
50356;BME280;36264;51.296;-0.602;2023-05-25T09:45:32;102632.88;;;22.21;49.16
50356;BME280;36264;51.296;-0.602;2023-05-25T09:47:58;102636.97;;;22.26;48.97
50356;BME280;36264;51.296;-0.602;2023-05-25T09:50:27;102634.63;;;22.20;48.84
50356;BME280;36264;51.296;-0.602;2023-05-25T09:52:57;102634.19;;;22.12;49.30
50356;BME280;36264;51.296;-0.602;2023-05-25T09:55:22;102636.59;;;22.17;48.94
50356;BME280;36264;51.296;-0.602;2023-05-25T09:57:52;102635.53;;;22.21;49.17
50356;BME280;36264;51.296;-0.602;2023-05-25T10:00:18;102633.72;;;22.04;48.11
50356;BME280;36264;51.296;-0.602;2023-05-25T10:02:43;102648.13;;;21.98;48.58
50356;BME280;36264;51.296;-0.602;2023-05-25T10:05:09;102642.91;;;21.97;49.11
50356;BME280;36264;51.296;-0.602;2023-05-25T10:07:35;102652.31;;;22.02;48.75
50356;BME280;36264;51.296;-0.602;2023-05-25T10:10:05;102639.53;;;21.93;47.81
50356;BME280;36264;51.296;-0.602;2023-05-25T10:12:32;102634.38;;;21.90;48.63
50356;BME280;36264;51.296;-0.602;2023-05-25T10:14:58;102644.28;;;22.04;48.01
50356;BME280;36264;51.296;-0.602;2023-05-25T10:17:30;102632.06;;;22.38;47.72
50356;BME280;36264;51.296;-0.602;2023-05-25T10:19:59;102647.50;;;22.63;47.89
50356;BME280;36264;51.296;-0.602;2023-05-25T10:24:57;102641.31;;;22.47;47.07
50356;BME280;36264;51.296;-0.602;2023-05-25T10:27:35;102647.75;;;22.41;47.81
50356;BME280;36264;51.296;-0.602;2023-05-25T10:30:03;102648.63;;;22.41;47.38
50356;BME280;36264;51.296;-0.602;2023-05-25T10:32:29;102649.47;;;22.59;47.54
50356;BME280;36264;51.296;-0.602;2023-05-25T10:34:56;102643.81;;;22.83;47.58
50356;BME280;36264;51.296;-0.602;2023-05-25T10:37:22;102644.63;;;23.01;47.17
50356;BME280;36264;51.296;-0.602;2023-05-25T10:39:51;102646.72;;;23.12;46.68
50356;BME280;36264;51.296;-0.602;2023-05-25T10:42:17;102638.97;;;23.25;46.55
50356;BME280;36264;51.296;-0.602;2023-05-25T10:44:43;102645.47;;;23.51;46.20
50356;BME280;36264;51.296;-0.602;2023-05-25T10:47:10;102644.78;;;23.79;46.58
50356;BME280;36264;51.296;-0.602;2023-05-25T10:49:51;102652.97;;;24.07;45.52
50356;BME280;36264;51.296;-0.602;2023-05-25T10:52:17;102644.28;;;24.19;45.75
50356;BME280;36264;51.296;-0.602;2023-05-25T10:54:46;102655.78;;;24.34;45.33
50356;BME280;36264;51.296;-0.602;2023-05-25T10:57:19;102644.31;;;24.64;44.95
50356;BME280;36264;51.296;-0.602;2023-05-25T10:59:52;102639.28;;;24.88;42.08
50356;BME280;36264;51.296;-0.602;2023-05-25T11:02:20;102634.81;;;25.03;44.47
50356;BME280;36264;51.296;-0.602;2023-05-25T11:04:49;102633.97;;;25.02;44.23
50356;BME280;36264;51.296;-0.602;2023-05-25T11:07:16;102646.88;;;24.94;44.39
50356;BME280;36264;51.296;-0.602;2023-05-25T11:09:55;102639.66;;;25.10;41.80
50356;BME280;36264;51.296;-0.602;2023-05-25T11:12:21;102633.19;;;25.14;43.87
50356;BME280;36264;51.296;-0.602;2023-05-25T11:15:10;102634.19;;;25.26;42.73
50356;BME280;36264;51.296;-0.602;2023-05-25T11:17:57;102636.88;;;25.41;42.49
50356;BME280;36264;51.296;-0.602;2023-05-25T11:20:26;102640.78;;;25.21;43.40
50356;BME280;36264;51.296;-0.602;2023-05-25T11:22:52;102640.97;;;25.18;43.85
50356;BME280;36264;51.296;-0.602;2023-05-25T11:25:41;102633.13;;;25.02;40.77
50356;BME280;36264;51.296;-0.602;2023-05-25T11:28:07;102638.53;;;25.29;43.73
50356;BME280;36264;51.296;-0.602;2023-05-25T11:30:35;102639.44;;;25.13;43.12
50356;BME280;36264;51.296;-0.602;2023-05-25T11:33:04;102645.53;;;24.87;42.01
50356;BME280;36264;51.296;-0.602;2023-05-25T11:35:31;102650.38;;;24.66;40.52
50356;BME280;36264;51.296;-0.602;2023-05-25T11:38:05;102655.31;;;24.57;44.36
50356;BME280;36264;51.296;-0.602;2023-05-25T11:40:30;102659.03;;;24.39;44.29
50356;BME280;36264;51.296;-0.602;2023-05-25T11:42:59;102657.16;;;24.41;44.07
50356;BME280;36264;51.296;-0.602;2023-05-25T11:45:27;102656.56;;;24.50;43.58
50356;BME280;36264;51.296;-0.602;2023-05-25T11:47:53;102654.09;;;24.63;43.91
50356;BME280;36264;51.296;-0.602;2023-05-25T11:50:18;102643.19;;;24.82;43.54
50356;BME280;36264;51.296;-0.602;2023-05-25T11:52:44;102650.38;;;24.94;43.42
50356;BME280;36264;51.296;-0.602;2023-05-25T11:55:13;102648.56;;;25.24;43.18
50356;BME280;36264;51.296;-0.602;2023-05-25T11:57:39;102637.63;;;25.43;43.08
50356;BME280;36264;51.296;-0.602;2023-05-25T12:00:05;102646.56;;;25.69;42.97
50356;BME280;36264;51.296;-0.602;2023-05-25T12:02:38;102636.31;;;25.63;41.35
50356;BME280;36264;51.296;-0.602;2023-05-25T12:05:04;102633.50;;;25.52;42.56
50356;BME280;36264;51.296;-0.602;2023-05-25T12:07:31;102640.66;;;25.51;42.83
50356;BME280;36264;51.296;-0.602;2023-05-25T12:10:11;102644.31;;;25.63;42.33
50356;BME280;36264;51.296;-0.602;2023-05-25T12:12:40;102638.13;;;25.90;41.58
50356;BME280;36264;51.296;-0.602;2023-05-25T12:15:08;102639.59;;;26.08;41.43
50356;BME280;36264;51.296;-0.602;2023-05-25T12:17:33;102644.75;;;26.37;41.58
50356;BME280;36264;51.296;-0.602;2023-05-25T12:19:59;102628.13;;;26.85;41.61
50356;BME280;36264;51.296;-0.602;2023-05-25T12:22:25;102629.59;;;27.15;40.56
50356;BME280;36264;51.296;-0.602;2023-05-25T12:24:51;102629.00;;;27.35;40.68
50356;BME280;36264;51.296;-0.602;2023-05-25T12:27:18;102632.47;;;27.48;40.90
50356;BME280;36264;51.296;-0.602;2023-05-25T12:29:47;102635.25;;;27.47;39.27
50356;BME280;36264;51.296;-0.602;2023-05-25T12:32:12;102638.97;;;27.33;40.19
50356;BME280;36264;51.296;-0.602;2023-05-25T12:34:38;102641.66;;;27.07;40.22
50356;BME280;36264;51.296;-0.602;2023-05-25T12:37:03;102629.13;;;26.84;40.51
50356;BME280;36264;51.296;-0.602;2023-05-25T12:41:58;102642.72;;;26.53;41.24
50356;BME280;36264;51.296;-0.602;2023-05-25T12:44:28;102644.13;;;26.33;39.54
50356;BME280;36264;51.296;-0.602;2023-05-25T12:47:10;102634.31;;;26.34;38.99